Time;durP1;ratioP1;P1;durP2;ratioP2;P2;SDS_P1;SDS_P2;PMS_P1;PMS_P2;Temp;Humidity;BMP_temperature;BMP_pressure;BME280_temperature;BME280_humidity;BME280_pressure;Samples;Min_cycle;Max_cycle;Signal;HPM_P1;HPM_P2
2023/12/02 00:00:08;;;;;;;14.75;8.57;;;-0.20;99.90;;;;;;4971423;28;20022;-60
2023/12/02 00:02:34;;;;;;;13.93;9.05;;;-0.20;99.90;;;;;;5037810;28;20030;-64
2023/12/02 00:05:00;;;;;;;14.20;8.38;;;-0.30;99.90;;;;;;4962424;28;20039;-68
2023/12/02 00:07:26;;;;;;;13.52;8.00;;;-0.30;99.90;;;;;;4947812;28;20089;-59
2023/12/02 00:09:51;;;;;;;13.85;8.85;;;-0.20;99.90;;;;;;4916581;28;20047;-53
2023/12/02 00:12:17;;;;;;;13.93;8.55;;;-0.30;99.90;;;;;;4949132;29;20031;-56
2023/12/02 00:14:43;;;;;;;14.48;8.05;;;-0.30;99.90;;;;;;4957453;22;20038;-48
2023/12/02 00:17:08;;;;;;;14.90;8.90;;;-0.30;99.90;;;;;;4928288;29;20039;-50
2023/12/02 00:19:34;;;;;;;12.50;8.00;;;-0.30;99.90;;;;;;4949123;28;20075;-49
2023/12/02 00:21:59;;;;;;;10.57;7.15;;;-0.30;99.90;;;;;;4967649;28;20035;-48
2023/12/02 00:24:25;;;;;;;14.90;8.63;;;-0.20;99.90;;;;;;4968142;28;20026;-52
2023/12/02 00:26:50;;;;;;;13.85;7.90;;;-0.20;99.90;;;;;;4968138;28;20126;-47
2023/12/02 00:29:16;;;;;;;14.20;8.13;;;-0.30;99.90;;;;;;4951257;28;20448;-49
2023/12/02 00:31:41;;;;;;;13.20;8.38;;;-0.30;99.90;;;;;;4967115;28;20113;-52
2023/12/02 00:34:07;;;;;;;16.05;10.15;;;-0.30;99.90;;;;;;4967390;28;20034;-47
2023/12/02 00:36:33;;;;;;;15.27;8.02;;;-0.30;99.90;;;;;;4968050;28;20594;-53
2023/12/02 00:38:59;;;;;;;12.55;7.18;;;-0.40;99.90;;;;;;4968303;28;20043;-48
2023/12/02 00:41:25;;;;;;;9.52;6.57;;;-0.40;99.90;;;;;;4941906;28;20027;-50
2023/12/02 00:43:50;;;;;;;9.82;6.63;;;-0.50;99.90;;;;;;4950699;28;20039;-51
2023/12/02 00:46:16;;;;;;;8.82;6.00;;;-0.50;99.90;;;;;;4968108;28;20034;-49
2023/12/02 00:48:41;;;;;;;9.23;6.20;;;-0.50;99.90;;;;;;4968207;28;20137;-46
2023/12/02 00:51:07;;;;;;;11.75;7.28;;;-0.60;99.90;;;;;;4967707;28;20035;-49
2023/12/02 00:53:32;;;;;;;12.65;7.38;;;-0.50;99.90;;;;;;4967937;28;20033;-49
2023/12/02 00:55:58;;;;;;;13.80;7.60;;;-0.60;99.90;;;;;;4967838;28;20058;-49
2023/12/02 00:58:23;;;;;;;11.32;7.22;;;-0.60;99.90;;;;;;4968067;28;20043;-49
2023/12/02 01:00:49;;;;;;;10.00;6.45;;;-0.60;99.90;;;;;;4950205;28;20118;-52
2023/12/02 01:03:15;;;;;;;10.10;6.82;;;-0.60;99.90;;;;;;4967749;28;20080;-52
2023/12/02 01:05:40;;;;;;;11.35;6.22;;;-0.70;99.90;;;;;;4950360;28;20031;-52
2023/12/02 01:08:05;;;;;;;10.55;6.63;;;-0.70;99.90;;;;;;4967907;28;20110;-49
2023/12/02 01:10:31;;;;;;;9.52;7.03;;;-0.70;99.90;;;;;;4950173;28;20432;-49
2023/12/02 01:12:57;;;;;;;9.23;5.97;;;-0.70;99.90;;;;;;4967516;28;20027;-50
2023/12/02 01:15:22;;;;;;;11.80;6.47;;;-0.70;99.90;;;;;;4950007;28;20100;-52
2023/12/02 01:17:48;;;;;;;14.18;8.40;;;-0.70;99.90;;;;;;4951318;28;20482;-53
2023/12/02 01:20:13;;;;;;;13.85;6.50;;;-0.70;99.90;;;;;;4952130;28;20018;-57
2023/12/02 01:22:39;;;;;;;13.50;7.78;;;-0.70;99.90;;;;;;4970522;28;20075;-50
2023/12/02 01:25:05;;;;;;;9.95;6.72;;;-0.60;99.90;;;;;;4970355;28;20023;-56
2023/12/02 01:27:30;;;;;;;10.98;6.88;;;-0.60;99.90;;;;;;4970261;28;20031;-53
2023/12/02 01:29:56;;;;;;;11.02;6.47;;;-0.60;99.90;;;;;;4970442;28;20038;-53
2023/12/02 01:32:21;;;;;;;10.82;7.07;;;-0.60;99.90;;;;;;4970014;28;20545;-53
2023/12/02 01:34:47;;;;;;;11.80;7.07;;;-0.50;99.90;;;;;;4969176;28;20035;-55
2023/12/02 01:37:12;;;;;;;10.32;5.78;;;-0.60;99.90;;;;;;4970189;28;20481;-56
2023/12/02 01:39:38;;;;;;;8.52;5.47;;;-0.60;99.90;;;;;;4970138;28;20023;-53
2023/12/02 01:42:04;;;;;;;8.15;5.97;;;-0.60;99.90;;;;;;4969785;28;20031;-57
2023/12/02 01:44:30;;;;;;;10.45;5.75;;;-0.60;99.90;;;;;;4970091;28;20034;-56
2023/12/02 01:46:55;;;;;;;5.50;3.88;;;-0.60;99.90;;;;;;4970215;28;20505;-53
2023/12/02 01:49:21;;;;;;;6.68;5.20;;;-0.90;99.90;;;;;;4952860;28;20023;-55
2023/12/02 01:51:48;;;;;;;12.82;6.75;;;-0.90;99.90;;;;;;4969770;28;20023;-54
2023/12/02 01:54:13;;;;;;;9.55;5.35;;;-0.90;99.90;;;;;;4969909;28;20397;-56
2023/12/02 01:56:39;;;;;;;11.25;6.65;;;-0.80;99.90;;;;;;4969787;28;20027;-54
2023/12/02 01:59:05;;;;;;;8.57;5.78;;;-0.80;99.90;;;;;;4953015;28;20501;-55
2023/12/02 02:01:30;;;;;;;9.60;5.97;;;-0.70;99.90;;;;;;4952368;28;20108;-51
2023/12/02 02:03:58;;;;;;;7.80;5.10;;;-0.70;99.90;;;;;;4969977;28;20039;-52
2023/12/02 02:06:24;;;;;;;9.43;5.40;;;-0.70;99.90;;;;;;4969811;28;20642;-50
2023/12/02 02:08:50;;;;;;;8.77;5.90;;;-0.70;99.90;;;;;;4952465;28;20030;-54
2023/12/02 02:11:15;;;;;;;12.20;5.28;;;-0.80;99.90;;;;;;4969524;28;20466;-52
2023/12/02 02:13:41;;;;;;;7.70;5.75;;;-0.70;99.90;;;;;;4969731;28;20035;-55
2023/12/02 02:16:06;;;;;;;11.50;6.30;;;-0.70;99.90;;;;;;4969463;28;20037;-53
2023/12/02 02:18:35;;;;;;;8.23;4.80;;;-0.80;99.90;;;;;;4969534;28;20027;-52
2023/12/02 02:21:00;;;;;;;7.50;5.30;;;-0.70;99.90;;;;;;4969548;28;20030;-56
2023/12/02 02:23:26;;;;;;;11.07;5.38;;;-0.70;99.90;;;;;;4969602;28;20113;-54
2023/12/02 02:25:52;;;;;;;7.88;4.55;;;-0.70;99.90;;;;;;4969466;28;20033;-51
2023/12/02 02:28:28;;;;;;;11.05;5.63;;;-0.70;99.90;;;;;;4969511;28;20498;-51
2023/12/02 02:30:54;;;;;;;8.07;5.18;;;-0.70;99.90;;;;;;4969344;28;20114;-51
2023/12/02 02:33:20;;;;;;;8.10;5.28;;;-0.70;99.90;;;;;;4969406;28;20533;-53
2023/12/02 02:35:47;;;;;;;7.63;5.53;;;-0.70;99.90;;;;;;4969400;28;20444;-52
2023/12/02 02:38:12;;;;;;;8.57;5.25;;;-0.70;99.90;;;;;;4969442;28;20453;-53
2023/12/02 02:40:38;;;;;;;9.57;5.65;;;-0.70;99.90;;;;;;4951899;28;20051;-53
2023/12/02 02:43:04;;;;;;;7.85;5.15;;;-0.70;99.90;;;;;;4952127;28;20021;-52
2023/12/02 02:45:30;;;;;;;6.05;4.70;;;-0.60;99.90;;;;;;4971189;28;20456;-53
2023/12/02 02:47:55;;;;;;;10.45;6.18;;;-0.70;99.90;;;;;;4955290;28;20019;-55
2023/12/02 02:50:21;;;;;;;7.40;4.47;;;-0.60;99.90;;;;;;4972480;28;20023;-52
2023/12/02 02:52:47;;;;;;;9.98;5.50;;;-0.70;99.90;;;;;;4955170;28;20478;-54
2023/12/02 02:55:12;;;;;;;8.38;5.43;;;-0.60;99.90;;;;;;4972454;28;20031;-54
2023/12/02 02:57:38;;;;;;;9.60;6.50;;;-0.60;99.90;;;;;;4972600;28;20050;-58
2023/12/02 03:00:09;;;;;;;8.68;5.22;;;-0.60;99.90;;;;;;4972659;28;20505;-55
2023/12/02 03:02:40;;;;;;;11.60;6.20;;;-0.60;99.90;;;;;;4972357;28;20039;-52
2023/12/02 03:05:06;;;;;;;7.68;5.07;;;-0.60;99.90;;;;;;4955145;28;20177;-51
2023/12/02 03:07:32;;;;;;;7.53;5.63;;;-0.60;99.90;;;;;;4955232;28;20047;-52
2023/12/02 03:10:00;;;;;;;8.25;5.78;;;-0.60;99.90;;;;;;4972494;28;20027;-54
2023/12/02 03:12:26;;;;;;;10.55;6.28;;;-0.60;99.90;;;;;;4972278;28;20035;-49
2023/12/02 03:14:53;;;;;;;7.25;5.00;;;-0.50;99.90;;;;;;4972278;28;20034;-56
2023/12/02 03:17:18;;;;;;;8.32;5.40;;;-0.60;99.90;;;;;;4972123;28;20042;-57
2023/12/02 03:19:44;;;;;;;8.50;5.95;;;-0.60;99.90;;;;;;4955018;28;20023;-58
2023/12/02 03:22:10;;;;;;;8.48;5.00;;;-0.60;99.90;;;;;;4972034;28;20026;-57
2023/12/02 03:24:35;;;;;;;8.98;5.85;;;-0.60;99.90;;;;;;4954925;28;20023;-56
2023/12/02 03:27:02;;;;;;;8.02;5.20;;;-0.50;99.90;;;;;;4972286;28;20023;-53
2023/12/02 03:29:28;;;;;;;8.10;5.63;;;-0.60;99.90;;;;;;4972177;28;20076;-49
2023/12/02 03:31:53;;;;;;;7.00;5.22;;;-0.60;99.90;;;;;;4954551;28;20478;-53
2023/12/02 03:34:19;;;;;;;6.80;5.07;;;-0.60;99.90;;;;;;4972001;28;20572;-54
2023/12/02 03:36:44;;;;;;;8.75;5.30;;;-0.60;99.90;;;;;;4954861;28;20019;-51
2023/12/02 03:39:12;;;;;;;7.88;5.38;;;-0.60;99.90;;;;;;4972292;28;20015;-52
2023/12/02 03:41:40;;;;;;;10.18;5.57;;;-0.60;99.90;;;;;;4971920;28;20057;-55
2023/12/02 03:44:05;;;;;;;8.00;5.18;;;-0.60;99.90;;;;;;4954589;28;20504;-52
2023/12/02 03:46:31;;;;;;;8.00;5.10;;;-0.60;99.90;;;;;;4954540;28;20055;-52
2023/12/02 03:48:57;;;;;;;8.25;5.38;;;-0.60;99.90;;;;;;4954457;28;20022;-53
2023/12/02 03:51:23;;;;;;;8.20;5.50;;;-0.70;99.90;;;;;;4971562;28;20029;-54
2023/12/02 03:53:48;;;;;;;7.57;5.07;;;-0.70;99.90;;;;;;4954255;28;20031;-54
2023/12/02 03:56:14;;;;;;;7.60;5.82;;;-0.70;99.90;;;;;;4971119;28;20390;-53
2023/12/02 03:58:40;;;;;;;7.82;5.80;;;-0.70;99.90;;;;;;4954278;28;20019;-55
2023/12/02 04:01:06;;;;;;;9.38;5.63;;;-0.70;99.90;;;;;;4971490;28;20110;-56
2023/12/02 04:03:32;;;;;;;8.40;5.68;;;-0.70;99.90;;;;;;4954327;28;20027;-55
2023/12/02 04:05:57;;;;;;;9.82;5.53;;;-0.60;99.90;;;;;;4971649;28;20084;-51
2023/12/02 04:08:23;;;;;;;9.30;6.18;;;-0.60;99.90;;;;;;4954004;28;20026;-55
2023/12/02 04:10:49;;;;;;;9.40;4.97;;;-0.60;99.90;;;;;;4971255;28;20022;-53
2023/12/02 04:13:14;;;;;;;11.15;5.53;;;-0.60;99.90;;;;;;4971378;28;20107;-51
2023/12/02 04:15:40;;;;;;;7.32;5.00;;;-0.60;99.90;;;;;;4953865;28;20034;-53
2023/12/02 04:18:06;;;;;;;8.05;5.10;;;-0.60;99.90;;;;;;4971108;28;20505;-54
2023/12/02 04:20:32;;;;;;;13.02;5.47;;;-0.60;99.90;;;;;;4971199;28;20019;-52
2023/12/02 04:22:57;;;;;;;8.35;5.07;;;-0.70;99.90;;;;;;4971608;28;20544;-53
2023/12/02 04:25:23;;;;;;;5.85;4.25;;;-0.70;99.90;;;;;;4953966;28;20022;-54
2023/12/02 04:27:49;;;;;;;6.10;4.88;;;-0.70;99.90;;;;;;4971540;28;20400;-55
2023/12/02 04:30:14;;;;;;;8.38;5.18;;;-0.70;99.90;;;;;;4971488;28;20023;-50
2023/12/02 04:32:40;;;;;;;5.97;4.47;;;-0.70;99.90;;;;;;4971217;28;20026;-50
2023/12/02 04:35:06;;;;;;;8.38;5.13;;;-0.70;99.90;;;;;;4971488;28;20061;-54
2023/12/02 04:37:32;;;;;;;6.60;4.25;;;-0.60;99.90;;;;;;4971213;28;20543;-54
2023/12/02 04:39:57;;;;;;;5.43;3.92;;;-0.70;99.90;;;;;;4953815;28;20026;-55
2023/12/02 04:42:23;;;;;;;7.05;4.63;;;-0.70;99.90;;;;;;4971096;28;20027;-51
2023/12/02 04:44:48;;;;;;;7.40;5.50;;;-0.60;99.90;;;;;;4971077;28;20648;-51
2023/12/02 04:47:14;;;;;;;7.40;4.65;;;-0.60;99.90;;;;;;4971081;28;20038;-56
2023/12/02 04:49:40;;;;;;;5.88;3.70;;;-0.60;99.90;;;;;;4971049;28;20470;-55
2023/12/02 04:52:05;;;;;;;6.22;4.03;;;-0.50;99.90;;;;;;4970954;28;20521;-50
2023/12/02 04:54:31;;;;;;;6.57;3.97;;;-0.60;99.90;;;;;;4970802;28;20489;-54
2023/12/02 04:56:56;;;;;;;4.32;3.58;;;-0.60;99.90;;;;;;4971068;28;20027;-54
2023/12/02 04:59:22;;;;;;;4.57;3.80;;;-0.70;99.90;;;;;;4953701;28;20054;-55
2023/12/02 05:01:47;;;;;;;5.93;4.00;;;-0.70;99.90;;;;;;4953404;28;20027;-53
2023/12/02 05:04:13;;;;;;;6.07;4.10;;;-0.70;99.90;;;;;;4970885;28;20027;-54
2023/12/02 05:06:39;;;;;;;7.80;4.32;;;-0.70;99.90;;;;;;4953679;28;20031;-56
2023/12/02 05:09:07;;;;;;;5.03;3.88;;;-0.70;99.90;;;;;;4953305;28;20027;-54
2023/12/02 05:11:33;;;;;;;4.93;3.95;;;-0.70;99.90;;;;;;4970543;28;20019;-55
2023/12/02 05:13:59;;;;;;;5.30;4.63;;;-0.70;99.90;;;;;;4953393;28;20035;-54
2023/12/02 05:16:24;;;;;;;7.90;4.38;;;-0.70;99.90;;;;;;4970740;28;20396;-54
2023/12/02 05:18:50;;;;;;;5.90;4.57;;;-0.70;99.90;;;;;;4970390;28;20045;-54
2023/12/02 05:21:16;;;;;;;6.30;4.60;;;-0.70;99.90;;;;;;4952880;28;20022;-54
2023/12/02 05:23:41;;;;;;;6.60;4.45;;;-0.70;99.90;;;;;;4970693;28;20027;-52
2023/12/02 05:26:08;;;;;;;5.45;4.90;;;-0.70;99.90;;;;;;4970431;28;20027;-56
2023/12/02 05:28:33;;;;;;;6.70;4.85;;;-0.70;99.90;;;;;;4970515;28;20026;-51
2023/12/02 05:30:59;;;;;;;5.82;4.07;;;-0.70;99.90;;;;;;4953283;28;20114;-52
2023/12/02 05:33:24;;;;;;;6.85;5.25;;;-0.70;99.90;;;;;;4970586;28;20096;-52
2023/12/02 05:35:50;;;;;;;8.05;4.88;;;-0.60;99.90;;;;;;4970346;28;20023;-51
2023/12/02 05:38:16;;;;;;;5.45;4.25;;;-0.60;99.90;;;;;;4953007;28;20023;-52
2023/12/02 05:40:42;;;;;;;5.50;4.75;;;-0.60;99.90;;;;;;4970097;28;20015;-54
2023/12/02 05:43:08;;;;;;;5.55;4.60;;;-0.60;99.90;;;;;;4970222;28;20049;-53
2023/12/02 05:45:33;;;;;;;6.22;5.10;;;-0.60;99.90;;;;;;4970213;28;20022;-53
2023/12/02 05:47:59;;;;;;;7.65;5.95;;;-0.60;99.90;;;;;;4970402;28;20022;-49
2023/12/02 05:50:26;;;;;;;5.68;4.35;;;-0.50;99.90;;;;;;4970269;28;20493;-52
2023/12/02 05:52:51;;;;;;;6.65;4.40;;;-0.50;99.90;;;;;;4970731;28;20057;-55
2023/12/02 05:55:17;;;;;;;4.93;3.85;;;-0.60;99.90;;;;;;4970075;28;20022;-53
2023/12/02 05:57:46;;;;;;;5.22;4.72;;;-0.60;99.90;;;;;;4970267;28;20395;-51
2023/12/02 06:00:13;;;;;;;5.45;4.38;;;-0.60;99.90;;;;;;4970209;28;20019;-53
2023/12/02 06:02:39;;;;;;;4.78;3.58;;;-0.60;99.90;;;;;;4953177;28;20035;-58
2023/12/02 06:05:06;;;;;;;5.28;4.10;;;-0.70;99.90;;;;;;4970094;28;20029;-54
2023/12/02 06:07:31;;;;;;;6.35;4.32;;;-0.80;99.90;;;;;;4952883;28;20332;-55
2023/12/02 06:09:57;;;;;;;7.22;4.80;;;-0.80;99.90;;;;;;4970251;28;20043;-55
2023/12/02 06:12:22;;;;;;;4.78;4.20;;;-0.70;99.90;;;;;;4969691;28;20084;-52
2023/12/02 06:14:47;;;;;;;6.70;4.30;;;-0.70;99.90;;;;;;4970265;28;20026;-55
2023/12/02 06:17:13;;;;;;;4.93;4.35;;;-0.80;99.90;;;;;;4971330;28;20034;-51
2023/12/02 06:19:38;;;;;;;6.47;4.60;;;-0.70;99.90;;;;;;4953926;28;20031;-56
2023/12/02 06:22:04;;;;;;;5.85;4.70;;;-0.70;99.90;;;;;;4973515;28;20034;-54
2023/12/02 06:24:30;;;;;;;6.47;4.18;;;-0.70;99.90;;;;;;4974023;28;20030;-55
2023/12/02 06:26:55;;;;;;;6.57;4.53;;;-0.70;99.90;;;;;;4973195;28;20026;-55
2023/12/02 06:29:21;;;;;;;6.70;4.40;;;-0.70;99.90;;;;;;4973247;28;20027;-52
2023/12/02 06:31:50;;;;;;;4.93;4.43;;;-0.70;99.90;;;;;;4972806;28;20034;-54
2023/12/02 06:34:16;;;;;;;7.07;5.20;;;-0.70;99.90;;;;;;4973020;28;20233;-51
2023/12/02 06:36:42;;;;;;;7.43;4.90;;;-0.70;99.90;;;;;;4972962;28;20019;-53
2023/12/02 06:39:08;;;;;;;8.30;4.90;;;-0.60;99.90;;;;;;4973243;28;20027;-50
2023/12/02 06:41:34;;;;;;;6.70;4.97;;;-0.60;99.90;;;;;;4972822;28;20031;-51
2023/12/02 06:43:59;;;;;;;5.97;4.78;;;-0.70;99.90;;;;;;4973057;28;20027;-50
2023/12/02 06:46:25;;;;;;;5.72;4.97;;;-0.80;99.90;;;;;;4972905;28;20067;-53
2023/12/02 06:48:50;;;;;;;7.65;6.05;;;-0.80;99.90;;;;;;4955675;28;20049;-54
2023/12/02 06:51:16;;;;;;;6.88;5.28;;;-0.80;99.90;;;;;;4955515;28;20462;-49
2023/12/02 06:53:42;;;;;;;6.97;5.13;;;-0.70;99.90;;;;;;4972873;28;20054;-54
2023/12/02 06:56:17;;;;;;;9.60;6.18;;;-0.70;99.90;;;;;;4972808;28;20444;-55
2023/12/02 06:58:43;;;;;;;6.95;4.90;;;-0.70;99.90;;;;;;4972678;28;20394;-55
2023/12/02 07:01:08;;;;;;;7.30;5.13;;;-0.70;99.90;;;;;;4972488;28;20035;-54
2023/12/02 07:03:34;;;;;;;7.18;6.15;;;-0.70;99.90;;;;;;4972928;28;20030;-55
2023/12/02 07:05:59;;;;;;;6.65;5.40;;;-0.70;99.90;;;;;;4955079;28;20034;-51
2023/12/02 07:08:24;;;;;;;12.35;6.00;;;-0.70;99.90;;;;;;4955231;28;20069;-51
2023/12/02 07:10:50;;;;;;;9.15;6.10;;;-0.60;99.90;;;;;;4972196;28;20035;-54
2023/12/02 07:13:16;;;;;;;7.85;4.75;;;-0.60;99.90;;;;;;4972471;28;20423;-54
2023/12/02 07:15:41;;;;;;;6.95;5.03;;;-0.70;99.90;;;;;;4972418;28;20092;-54
2023/12/02 07:18:07;;;;;;;7.13;5.22;;;-0.80;99.90;;;;;;4972379;28;20049;-56
2023/12/02 07:20:32;;;;;;;5.32;4.82;;;-0.80;99.90;;;;;;4972156;28;20478;-54
2023/12/02 07:22:59;;;;;;;6.15;5.50;;;-0.80;99.90;;;;;;4972463;28;20072;-52
2023/12/02 07:25:24;;;;;;;7.63;5.75;;;-0.80;99.90;;;;;;4955013;28;20030;-54
2023/12/02 07:27:50;;;;;;;6.18;4.85;;;-0.80;99.90;;;;;;4972347;28;20034;-54
2023/12/02 07:30:15;;;;;;;6.05;4.65;;;-0.70;99.90;;;;;;4972269;28;20034;-52
2023/12/02 07:32:41;;;;;;;6.50;4.90;;;-0.70;99.90;;;;;;4972072;28;20508;-53
2023/12/02 07:35:07;;;;;;;17.38;5.30;;;-0.70;99.90;;;;;;4972022;28;20027;-51
2023/12/02 07:37:32;;;;;;;8.13;5.45;;;-0.70;99.90;;;;;;4972231;28;20123;-54
2023/12/02 07:39:57;;;;;;;4.63;4.30;;;-0.70;99.90;;;;;;4972161;28;20102;-50
2023/12/02 07:42:23;;;;;;;6.03;4.57;;;-0.70;99.90;;;;;;4971961;28;20023;-56
2023/12/02 07:44:49;;;;;;;6.03;4.82;;;-0.70;99.90;;;;;;4972112;28;20042;-55
2023/12/02 07:47:14;;;;;;;5.95;4.95;;;-0.80;99.90;;;;;;4971979;28;20054;-51
2023/12/02 07:49:40;;;;;;;9.60;5.50;;;-0.80;99.90;;;;;;4954538;28;20033;-51
2023/12/02 07:52:05;;;;;;;8.45;5.15;;;-0.80;99.90;;;;;;4971530;28;20027;-53
2023/12/02 07:54:31;;;;;;;8.48;5.28;;;-0.90;99.90;;;;;;4971663;28;20060;-53
2023/12/02 07:56:57;;;;;;;6.80;5.32;;;-0.90;99.90;;;;;;4971750;28;20019;-51
2023/12/02 07:59:22;;;;;;;7.70;5.07;;;-1.00;99.90;;;;;;4972095;28;20019;-50
2023/12/02 08:01:48;;;;;;;8.73;5.38;;;-1.00;99.90;;;;;;4971629;28;20501;-53
2023/12/02 08:04:13;;;;;;;6.75;4.80;;;-1.00;99.90;;;;;;4971810;28;20035;-56
2023/12/02 08:06:39;;;;;;;7.30;5.57;;;-1.10;99.90;;;;;;4971533;28;20030;-53
2023/12/02 08:09:05;;;;;;;9.20;5.60;;;-1.10;99.90;;;;;;4971638;28;20532;-55
2023/12/02 08:11:30;;;;;;;8.05;4.97;;;-1.10;99.90;;;;;;4971497;28;20027;-52
2023/12/02 08:13:56;;;;;;;5.05;4.22;;;-1.00;99.90;;;;;;4971399;28;20038;-53
2023/12/02 08:16:21;;;;;;;7.32;5.22;;;-1.10;99.90;;;;;;4971233;28;20030;-56
2023/12/02 08:18:47;;;;;;;12.32;5.47;;;-1.10;99.90;;;;;;4953722;28;20019;-55
2023/12/02 08:21:12;;;;;;;7.03;4.63;;;-1.20;99.90;;;;;;4971017;28;20027;-51
2023/12/02 08:23:38;;;;;;;7.60;5.47;;;-1.20;99.90;;;;;;4954115;28;20038;-54
2023/12/02 08:26:04;;;;;;;6.78;5.03;;;-1.10;99.90;;;;;;4971204;28;20027;-55
2023/12/02 08:28:29;;;;;;;4.13;3.72;;;-1.10;99.90;;;;;;4971066;28;20027;-53
2023/12/02 08:30:55;;;;;;;5.43;4.60;;;-1.00;99.90;;;;;;4970790;28;20379;-49
2023/12/02 08:33:20;;;;;;;6.88;5.50;;;-1.10;99.90;;;;;;4971111;28;20030;-54
2023/12/02 08:35:46;;;;;;;9.57;5.80;;;-1.00;99.90;;;;;;4971339;28;20038;-53
2023/12/02 08:38:11;;;;;;;7.28;5.07;;;-0.90;99.90;;;;;;4971259;28;20477;-55
2023/12/02 08:40:37;;;;;;;10.45;5.35;;;-0.90;99.90;;;;;;4953677;28;20064;-54
2023/12/02 08:43:03;;;;;;;6.38;5.15;;;-0.80;99.90;;;;;;4953171;28;20046;-56
2023/12/02 08:45:28;;;;;;;5.53;4.38;;;-0.80;99.90;;;;;;4968091;28;20265;-47
2023/12/02 08:47:54;;;;;;;6.75;4.30;;;-0.90;99.90;;;;;;4952106;28;20088;-49
2023/12/02 08:50:19;;;;;;;8.98;5.03;;;-0.90;99.90;;;;;;4951868;29;20031;-48
2023/12/02 08:52:45;;;;;;;7.07;5.10;;;-1.00;99.90;;;;;;4964168;28;20040;-52
2023/12/02 08:55:10;;;;;;;5.85;4.30;;;-1.00;99.90;;;;;;4960684;28;20050;-62
2023/12/02 08:57:36;;;;;;;8.23;5.68;;;-0.90;99.90;;;;;;4953562;28;20030;-51
2023/12/02 09:00:01;;;;;;;5.43;4.53;;;-0.80;99.90;;;;;;4965940;28;20027;-52
2023/12/02 09:02:27;;;;;;;9.95;5.07;;;-0.80;99.90;;;;;;4955261;28;20450;-50
2023/12/02 09:04:52;;;;;;;4.45;3.95;;;-0.90;99.90;;;;;;4951578;28;20058;-48
2023/12/02 09:07:18;;;;;;;6.47;4.68;;;-1.00;99.90;;;;;;4960063;28;20105;-50
2023/12/02 09:09:43;;;;;;;5.38;4.68;;;-0.90;99.90;;;;;;4952224;28;20031;-49
2023/12/02 09:12:09;;;;;;;10.07;4.63;;;-0.80;99.90;;;;;;4954975;28;20293;-49
2023/12/02 09:14:34;;;;;;;7.88;5.18;;;-0.80;99.90;;;;;;4951352;29;20537;-49
2023/12/02 09:17:00;;;;;;;9.68;6.22;;;-0.80;99.90;;;;;;4951273;29;20039;-52
2023/12/02 09:19:44;;;;;;;5.15;4.18;;;-0.80;99.90;;;;;;4934371;29;20026;-47
2023/12/02 09:22:46;;;;;;;8.55;4.78;;;-0.70;99.90;;;;;;4933991;29;20592;-51
2023/12/02 09:25:27;;;;;;;7.38;4.65;;;-0.60;99.90;;;;;;4951250;29;20062;-53
2023/12/02 09:28:09;;;;;;;7.03;4.80;;;-0.60;99.90;;;;;;4951140;29;20023;-50
2023/12/02 09:30:40;;;;;;;8.75;4.90;;;-0.60;99.90;;;;;;4951277;29;20027;-49
2023/12/02 09:33:06;;;;;;;4.95;4.45;;;-0.60;99.90;;;;;;4951240;29;20077;-46
2023/12/02 09:35:33;;;;;;;5.35;4.85;;;-0.50;99.90;;;;;;4951289;29;20444;-50
2023/12/02 09:38:00;;;;;;;5.25;4.75;;;-0.40;99.90;;;;;;4951468;29;20023;-49
2023/12/02 09:41:09;;;;;;;7.47;4.90;;;-0.30;99.90;;;;;;4951458;29;20031;-47
2023/12/02 09:43:43;;;;;;;9.18;5.80;;;-0.30;99.90;;;;;;4951123;29;20115;-50
2023/12/02 09:46:28;;;;;;;10.27;5.53;;;-0.30;99.90;;;;;;4958600;28;20031;-47
2023/12/02 09:49:27;;;;;;;6.30;4.75;;;-0.20;99.90;;;;;;4961396;28;20407;-49
2023/12/02 09:52:01;;;;;;;7.30;5.25;;;-0.20;99.90;;;;;;4931993;28;20032;-47
2023/12/02 09:54:47;;;;;;;7.97;4.95;;;-0.10;99.90;;;;;;4948760;28;20466;-51
2023/12/02 09:57:34;;;;;;;6.40;4.63;;;0.00;99.90;;;;;;4958875;28;20089;-46
2023/12/02 10:00:09;;;;;;;6.35;5.28;;;-0.10;99.90;;;;;;4947949;28;20106;-52
2023/12/02 10:02:58;;;;;;;7.20;5.00;;;-0.20;99.90;;;;;;4952372;28;20572;-48
2023/12/02 10:05:24;;;;;;;6.35;5.15;;;-0.20;99.90;;;;;;4968852;28;20482;-52
2023/12/02 10:08:16;;;;;;;5.93;5.10;;;-0.20;99.90;;;;;;4958831;28;20043;-51
2023/12/02 10:10:59;;;;;;;5.10;4.60;;;-0.30;99.90;;;;;;4954699;28;20100;-47
2023/12/02 10:13:43;;;;;;;8.60;5.50;;;-0.40;99.90;;;;;;4958838;28;20440;-50
2023/12/02 10:16:15;;;;;;;6.88;5.13;;;-0.30;99.90;;;;;;4969451;28;20043;-46
2023/12/02 10:18:57;;;;;;;4.93;4.10;;;-0.30;99.90;;;;;;4969895;28;20030;-50
2023/12/02 10:21:27;;;;;;;8.43;5.45;;;-0.50;99.90;;;;;;4967542;28;20030;-53
2023/12/02 10:24:03;;;;;;;6.22;4.53;;;-0.60;99.90;;;;;;4962546;28;20402;-48
2023/12/02 10:26:29;;;;;;;;;;;-0.50;99.90;;;;;;4951708;28;20038;-48
2023/12/02 10:29:00;;;;;;;;;;;-0.50;99.90;;;;;;4952248;28;19910;-48
2023/12/02 10:31:28;;;;;;;9.75;4.72;;;-0.50;99.90;;;;;;4954821;28;19911;-48
2023/12/02 10:34:12;;;;;;;7.13;4.03;;;-0.50;99.90;;;;;;4950636;29;20506;-53
2023/12/02 10:36:38;;;;;;;7.15;5.18;;;-0.50;99.90;;;;;;4958952;28;20028;-50
2023/12/02 10:39:24;;;;;;;7.97;5.22;;;-0.50;99.90;;;;;;4958857;28;20080;-51
2023/12/02 10:42:00;;;;;;;7.93;5.00;;;-0.50;99.90;;;;;;4953671;28;20106;-48
2023/12/02 10:44:30;;;;;;;7.65;4.88;;;-0.60;99.90;;;;;;4955431;28;20036;-52
2023/12/02 10:46:57;;;;;;;6.20;4.75;;;-0.50;99.90;;;;;;4950211;29;20030;-49
2023/12/02 10:49:23;;;;;;;9.45;5.45;;;-0.50;99.90;;;;;;4950607;29;20413;-51
2023/12/02 10:51:50;;;;;;;6.53;5.13;;;-0.40;99.90;;;;;;4950491;28;20035;-52
2023/12/02 10:54:17;;;;;;;8.70;4.70;;;-0.50;99.90;;;;;;4933403;29;20117;-45
2023/12/02 10:56:46;;;;;;;7.30;5.07;;;-0.60;99.90;;;;;;4965255;28;20076;-44
2023/12/02 10:59:12;;;;;;;6.85;5.28;;;-0.50;99.90;;;;;;4969381;28;20023;-49
2023/12/02 11:01:48;;;;;;;7.43;5.10;;;-0.60;99.90;;;;;;4968830;28;20034;-48
2023/12/02 11:04:23;;;;;;;8.23;4.60;;;-0.50;99.90;;;;;;4968422;28;20027;-49
2023/12/02 11:07:00;;;;;;;6.45;4.43;;;-0.20;99.90;;;;;;4972092;28;20043;-52
2023/12/02 11:09:37;;;;;;;5.70;3.65;;;-0.30;99.90;;;;;;4971506;28;20119;-50
2023/12/02 11:12:11;;;;;;;4.68;4.05;;;-0.30;99.90;;;;;;4972409;28;20394;-51
2023/12/02 11:14:41;;;;;;;6.50;5.15;;;-0.40;99.90;;;;;;4955858;28;20038;-48
2023/12/02 11:17:43;;;;;;;6.25;4.50;;;-0.40;99.90;;;;;;4958480;28;20049;-47
2023/12/02 11:20:27;;;;;;;5.22;4.20;;;-0.40;99.90;;;;;;4940909;28;20088;-48
2023/12/02 11:23:12;;;;;;;4.43;3.50;;;-0.50;99.90;;;;;;4965646;28;20045;-47
2023/12/02 11:26:13;;;;;;;4.03;3.35;;;-0.50;99.90;;;;;;4969548;28;20026;-51
2023/12/02 11:29:00;;;;;;;4.93;3.92;;;-0.50;99.90;;;;;;4956852;28;20398;-51
2023/12/02 11:32:03;;;;;;;3.97;3.58;;;-0.60;99.90;;;;;;4971847;28;20038;-50
2023/12/02 11:34:58;;;;;;;5.13;4.18;;;-0.50;99.90;;;;;;4937465;28;20206;-50
2023/12/02 11:37:45;;;;;;;4.77;3.97;;;-0.50;99.90;;;;;;4952493;28;20526;-49
2023/12/02 11:40:23;;;;;;;13.20;7.80;;;-0.50;99.90;;;;;;4967550;28;20043;-53
2023/12/02 11:43:07;;;;;;;5.18;4.38;;;-0.60;99.90;;;;;;4953937;28;20027;-50
2023/12/02 11:45:37;;;;;;;4.22;3.45;;;-0.50;99.90;;;;;;4961009;28;20065;-52
2023/12/02 11:48:11;;;;;;;7.07;4.72;;;-0.40;99.90;;;;;;4943807;29;20062;-55
2023/12/02 11:51:15;;;;;;;5.30;4.22;;;-0.40;99.90;;;;;;4946672;29;20035;-50
2023/12/02 11:53:55;;;;;;;5.68;4.70;;;-0.30;99.90;;;;;;4954857;28;20038;-58
2023/12/02 11:56:23;;;;;;;5.88;4.25;;;-0.30;99.90;;;;;;4954282;28;20038;-54
2023/12/02 11:59:02;;;;;;;5.88;4.15;;;-0.10;99.90;;;;;;4958428;28;20085;-51
2023/12/02 12:01:49;;;;;;;10.05;4.25;;;-0.10;99.90;;;;;;4969545;28;20034;-49
2023/12/02 12:04:20;;;;;;;6.35;4.78;;;0.00;99.90;;;;;;4962748;28;20441;-49
2023/12/02 12:07:07;;;;;;;7.53;4.40;;;0.10;99.90;;;;;;4952377;29;20039;-51
2023/12/02 12:09:51;;;;;;;5.38;4.32;;;0.30;99.90;;;;;;4952392;29;20031;-55
2023/12/02 12:12:19;;;;;;;4.40;4.00;;;0.40;99.90;;;;;;4952282;29;20031;-53
2023/12/02 12:14:47;;;;;;;5.20;4.13;;;0.40;99.90;;;;;;4952307;28;20019;-58
2023/12/02 12:17:12;;;;;;;5.35;4.25;;;0.50;99.90;;;;;;4967648;22;20118;-54
2023/12/02 12:19:39;;;;;;;4.75;4.35;;;0.60;99.90;;;;;;4961820;28;20102;-57
2023/12/02 12:22:05;;;;;;;4.70;4.25;;;0.60;99.90;;;;;;4990051;28;20385;-58
2023/12/02 12:24:30;;;;;;;5.15;4.53;;;0.80;99.90;;;;;;4957241;28;20030;-55
2023/12/02 12:26:56;;;;;;;7.22;4.43;;;0.70;99.90;;;;;;4969673;28;20041;-53
2023/12/02 12:29:22;;;;;;;4.72;4.22;;;0.50;99.90;;;;;;4945493;29;20031;-51
2023/12/02 12:31:47;;;;;;;4.63;4.07;;;0.50;99.90;;;;;;4934759;29;20080;-58
2023/12/02 12:34:13;;;;;;;5.88;4.90;;;0.50;99.90;;;;;;4953832;28;20062;-52
2023/12/02 12:36:43;;;;;;;5.97;4.32;;;0.50;99.90;;;;;;4958342;28;20505;-57
2023/12/02 12:39:10;;;;;;;4.43;3.97;;;0.50;99.90;;;;;;4956791;28;20024;-56
2023/12/02 12:41:39;;;;;;;8.70;6.22;;;0.50;99.90;;;;;;4953180;28;20057;-57
2023/12/02 12:44:05;;;;;;;9.45;7.32;;;0.70;99.90;;;;;;4971095;28;20389;-55
2023/12/02 12:46:31;;;;;;;8.32;6.07;;;0.80;99.90;;;;;;4954026;28;20023;-56
2023/12/02 12:48:57;;;;;;;9.20;6.20;;;0.70;99.90;;;;;;4971439;28;20033;-50
2023/12/02 12:51:23;;;;;;;11.30;8.07;;;0.60;99.90;;;;;;4971341;28;20039;-49